Time;durP1;ratioP1;P1;durP2;ratioP2;P2;SDS_P1;SDS_P2;PMS_P1;PMS_P2;Temp;Humidity;BMP_temperature;BMP_pressure;BME280_temperature;BME280_humidity;BME280_pressure;Samples;Min_cycle;Max_cycle;Signal;HPM_P1;HPM_P2
2021/08/26 00:00:18;;;;;;;1.80;1.50;;;;;;;16.90;71.97;100391.31;701215;28;22400;-68
2021/08/26 00:00:44;;;;;;;2.05;1.42;;;;;;;16.89;71.91;100385.00;702271;28;1935;-68
2021/08/26 00:01:12;;;;;;;1.60;1.48;;;;;;;16.88;71.89;100385.25;699212;27;139014;-69
2021/08/26 00:05:44;;;;;;;2.20;1.60;;;;;;;16.87;72.04;100381.69;700273;27;137239;-69
2021/08/26 00:06:05;;;;;;;2.50;1.60;;;;;;;16.89;71.90;100389.66;700756;27;137314;-69
2021/08/26 00:06:27;;;;;;;2.47;1.50;;;;;;;16.89;72.03;100382.28;705051;27;22552;-68
2021/08/26 00:06:48;;;;;;;2.70;1.70;;;;;;;16.89;71.98;100384.19;703485;27;47641;-68
2021/08/26 00:07:10;;;;;;;2.70;1.70;;;;;;;16.88;72.01;100386.09;704620;27;22194;-68
2021/08/26 00:07:31;;;;;;;3.20;1.70;;;;;;;16.89;71.82;100386.91;705209;27;21600;-67
2021/08/26 00:07:56;;;;;;;3.88;1.90;;;;;;;16.88;71.90;100380.63;704479;27;1470;-69
2021/08/26 00:08:19;;;;;;;2.47;2.10;;;;;;;16.88;71.96;100380.63;700971;27;138827;-69
2021/08/26 00:08:40;;;;;;;2.63;2.13;;;;;;;16.88;71.81;100377.06;704044;27;45274;-69
2021/08/26 00:09:01;;;;;;;2.63;2.20;;;;;;;16.85;71.95;100372.88;704948;27;23424;-68
2021/08/26 00:09:23;;;;;;;1.92;1.77;;;;;;;16.87;71.78;100378.13;704792;27;22189;-68
2021/08/26 00:09:44;;;;;;;2.63;1.80;;;;;;;16.86;71.84;100376.47;704099;27;45198;-68
2021/08/26 00:10:08;;;;;;;2.67;1.70;;;;;;;16.87;71.89;100378.97;704915;27;21538;-66
2021/08/26 00:10:30;;;;;;;1.77;1.52;;;;;;;16.87;71.93;100380.88;702512;27;92286;-68
2021/08/26 00:10:53;;;;;;;2.10;1.70;;;;;;;16.86;71.92;100374.56;704320;27;45262;-68
2021/08/26 00:11:17;;;;;;;2.63;1.83;;;;;;;16.85;72.02;100377.47;703125;27;69391;-68
2021/08/26 00:11:38;;;;;;;2.28;1.70;;;;;;;16.86;71.83;100377.28;702549;27;92269;-68
2021/08/26 00:11:59;;;;;;;2.20;1.98;;;;;;;16.87;72.02;100369.97;704015;27;23527;-68
2021/08/26 00:12:23;;;;;;;2.63;1.90;;;;;;;16.87;71.83;100369.97;704902;27;22388;-68
2021/08/26 00:12:44;;;;;;;3.78;2.00;;;;;;;16.85;71.91;100367.44;702424;27;92315;-69
2021/08/26 00:13:11;;;;;;;3.83;2.00;;;;;;;16.86;71.72;100374.56;705448;27;14927;-68
2021/08/26 00:13:32;;;;;;;3.80;1.77;;;;;;;16.85;71.90;100367.44;700375;27;91035;-68
2021/08/26 00:13:54;;;;;;;2.70;1.90;;;;;;;16.86;71.99;100376.47;705093;27;21273;-68
2021/08/26 00:14:15;;;;;;;2.30;1.65;;;;;;;16.82;71.89;100367.03;704030;27;45278;-67
2021/08/26 00:14:37;;;;;;;1.70;1.60;;;;;;;16.84;71.75;100368.47;706106;27;23593;-68
2021/08/26 00:14:59;;;;;;;1.53;1.43;;;;;;;16.83;71.93;100366.81;703879;27;44391;-68
2021/08/26 00:15:21;;;;;;;2.55;1.90;;;;;;;16.83;71.90;100364.06;703069;27;69847;-68
2021/08/26 00:15:45;;;;;;;2.63;1.60;;;;;;;16.81;71.83;100360.75;704048;27;45294;-68
2021/08/26 00:16:06;;;;;;;2.58;1.52;;;;;;;16.80;71.96;100364.53;702883;27;92206;-68
2021/08/26 00:16:27;;;;;;;1.70;1.60;;;;;;;16.80;71.76;100359.06;704240;27;24223;-68
2021/08/26 00:16:49;;;;;;;3.00;1.70;;;;;;;16.80;71.88;100359.06;705173;27;23419;-68
2021/08/26 00:17:10;;;;;;;3.05;1.67;;;;;;;16.79;71.74;100368.34;704242;27;44432;-68
2021/08/26 00:17:32;;;;;;;2.85;1.60;;;;;;;16.79;72.03;100368.34;704486;27;22557;-68
2021/08/26 00:17:53;;;;;;;2.53;1.90;;;;;;;16.77;71.86;100359.56;704315;27;22384;-69
2021/08/26 00:18:16;;;;;;;2.00;1.90;;;;;;;16.77;71.86;100367.75;704565;27;22465;-68
2021/08/26 00:18:37;;;;;;;2.10;1.90;;;;;;;16.76;72.00;100364.16;703295;27;69280;-68
2021/08/26 00:18:59;;;;;;;1.90;1.80;;;;;;;16.76;71.92;100369.63;704168;27;46182;-68
2021/08/26 00:19:20;;;;;;;2.10;1.90;;;;;;;16.76;71.83;100374.25;705316;27;23492;-68
2021/08/26 00:19:42;;;;;;;2.92;1.85;;;;;;;16.75;71.68;100367.13;703635;27;44385;-68
2021/08/26 00:20:04;;;;;;;2.22;1.70;;;;;;;16.74;71.97;100370.91;704231;27;44411;-68
2021/08/26 00:20:25;;;;;;;2.45;1.70;;;;;;;16.73;71.90;100367.34;700178;28;25541;-68
2021/08/26 00:20:50;;;;;;;2.80;1.90;;;;;;;16.74;71.86;100365.47;699689;28;46458;-68
2021/08/26 00:21:13;;;;;;;2.63;1.70;;;;;;;16.70;72.05;100361.50;697453;28;113614;-68
2021/08/26 00:21:34;;;;;;;2.78;1.80;;;;;;;16.72;72.11;100356.66;702071;28;45297;-68
2021/08/26 00:21:55;;;;;;;3.50;2.00;;;;;;;16.72;71.81;100362.97;702722;28;22404;-68
2021/08/26 00:22:17;;;;;;;2.28;2.00;;;;;;;16.70;71.79;100361.50;702844;28;21303;-68
2021/08/26 00:22:39;;;;;;;2.00;1.80;;;;;;;16.70;71.88;100359.59;702006;28;69220;-68
2021/08/26 00:23:00;;;;;;;4.10;1.90;;;;;;;16.70;72.02;100364.25;701628;28;69479;-68
2021/08/26 00:23:22;;;;;;;3.38;2.00;;;;;;;16.72;72.05;100362.09;703803;27;21563;-68
2021/08/26 00:23:43;;;;;;;4.30;1.90;;;;;;;16.70;72.21;100365.06;703173;27;44440;-68
2021/08/26 00:24:06;;;;;;;3.20;1.80;;;;;;;16.70;72.02;100367.78;704790;27;22398;-68
2021/08/26 00:24:27;;;;;;;1.88;1.77;;;;;;;16.72;72.10;100364.84;703515;27;67528;-68
2021/08/26 00:24:48;;;;;;;2.42;1.80;;;;;;;16.72;72.03;100370.28;700924;28;21496;-68
2021/08/26 00:25:10;;;;;;;2.78;2.00;;;;;;;16.73;72.07;100364.63;701677;28;23454;-68
2021/08/26 00:25:32;;;;;;;3.22;1.90;;;;;;;16.71;71.92;100365.91;700786;28;45430;-68
2021/08/26 00:25:53;;;;;;;2.92;1.90;;;;;;;16.75;71.97;100369.84;701114;28;44388;-68
2021/08/26 00:26:14;;;;;;;2.60;1.80;;;;;;;16.75;71.98;100364.38;702150;28;22412;-68
2021/08/26 00:26:35;;;;;;;2.40;1.90;;;;;;;16.75;71.97;100362.50;702010;27;22447;-68
2021/08/26 00:26:57;;;;;;;2.88;1.80;;;;;;;16.75;72.17;100370.69;703694;27;45167;-68
2021/08/26 00:27:18;;;;;;;3.22;1.70;;;;;;;16.76;71.87;100369.63;700258;28;23432;-68
2021/08/26 00:27:41;;;;;;;3.28;2.00;;;;;;;16.76;72.01;100369.63;695948;28;46373;-68
2021/08/26 00:28:02;;;;;;;3.67;2.00;;;;;;;16.77;72.01;100354.09;697795;28;44379;-68
2021/08/26 00:28:24;;;;;;;5.13;2.22;;;;;;;16.78;71.94;100361.22;698100;28;21557;-68
2021/08/26 00:28:45;;;;;;;3.50;2.05;;;;;;;16.80;71.78;100369.16;696736;28;46433;-70
2021/08/26 00:29:06;;;;;;;2.10;1.80;;;;;;;16.80;71.89;100360.97;698478;28;22989;-69
2021/08/26 00:29:27;;;;;;;2.60;1.80;;;;;;;16.81;71.78;100366.19;702551;27;23453;-69
2021/08/26 00:29:50;;;;;;;2.20;1.80;;;;;;;16.76;71.75;100353.25;704760;27;22442;-69
2021/08/26 00:30:11;;;;;;;2.35;1.95;;;;;;;16.83;71.77;100363.25;703105;27;67465;-69
2021/08/26 00:30:32;;;;;;;2.33;1.98;;;;;;;16.84;71.59;100367.66;704803;27;23499;-69
2021/08/26 00:30:54;;;;;;;2.50;2.00;;;;;;;16.83;71.78;100358.63;704771;27;22179;-69
2021/08/26 00:31:15;;;;;;;3.20;1.90;;;;;;;16.85;71.58;100356.50;704171;27;45104;-68
2021/08/26 00:31:36;;;;;;;2.63;1.90;;;;;;;16.85;71.43;100361.97;704785;27;22434;-69
2021/08/26 00:31:58;;;;;;;2.88;2.00;;;;;;;16.86;71.72;100360.09;705598;27;23660;-69
2021/08/26 00:32:20;;;;;;;2.03;1.83;;;;;;;16.87;71.57;100350.88;704093;27;42262;-67
2021/08/26 00:32:41;;;;;;;2.92;2.08;;;;;;;16.87;71.53;100361.78;699542;28;46308;-67
2021/08/26 00:33:02;;;;;;;3.75;2.03;;;;;;;16.87;71.61;100364.50;700378;28;22358;-69
2021/08/26 00:33:23;;;;;;;2.15;2.00;;;;;;;16.86;71.34;100357.38;700181;28;23265;-67
2021/08/26 00:33:45;;;;;;;2.35;2.00;;;;;;;16.86;71.64;100357.38;700561;28;23379;-68
2021/08/26 00:34:06;;;;;;;3.20;1.88;;;;;;;16.87;71.43;100359.88;699763;28;45076;-69
2021/08/26 00:34:27;;;;;;;3.95;2.10;;;;;;;16.88;71.66;100363.41;701326;28;23266;-68
2021/08/26 00:34:48;;;;;;;3.53;2.17;;;;;;;16.88;71.41;100366.16;705072;27;22389;-68
2021/08/26 00:35:11;;;;;;;2.17;2.00;;;;;;;16.88;71.18;100352.50;704881;27;23534;-69
2021/08/26 00:35:32;;;;;;;2.75;2.00;;;;;;;16.81;71.38;100349.84;702577;27;90726;-68
2021/08/26 00:35:53;;;;;;;2.72;1.83;;;;;;;16.87;71.47;100353.59;705480;27;22408;-68
2021/08/26 00:36:16;;;;;;;2.33;2.10;;;;;;;16.86;71.39;100362.81;703336;27;44378;-67
2021/08/26 00:36:38;;;;;;;2.45;1.98;;;;;;;16.84;71.34;100346.66;704027;27;46310;-68
2021/08/26 00:36:59;;;;;;;3.60;2.00;;;;;;;16.85;71.40;100361.13;704865;27;45279;-67
2021/08/26 00:37:20;;;;;;;4.30;1.98;;;;;;;16.83;71.58;100355.88;704720;27;24327;-68
2021/08/26 00:37:41;;;;;;;2.60;2.10;;;;;;;16.84;71.46;100354.03;703294;27;46365;-68
2021/08/26 00:38:03;;;;;;;3.40;2.15;;;;;;;16.83;71.24;100357.78;704183;27;45306;-70
2021/08/26 00:38:25;;;;;;;2.58;2.10;;;;;;;16.84;71.42;100349.38;703963;27;44438;-67
2021/08/26 00:38:46;;;;;;;3.33;1.90;;;;;;;16.83;71.42;100353.16;705180;27;23417;-70
2021/08/26 00:39:07;;;;;;;4.35;1.90;;;;;;;16.83;71.60;100352.34;705206;27;22407;-68
2021/08/26 00:39:29;;;;;;;4.75;2.03;;;;;;;16.82;71.51;100345.22;704528;27;45256;-67
2021/08/26 00:39:50;;;;;;;3.55;2.00;;;;;;;16.84;71.53;100354.03;704720;27;23441;-69
2021/08/26 00:40:12;;;;;;;2.67;2.00;;;;;;;16.79;71.51;100346.53;705179;27;22329;-68
2021/08/26 00:40:33;;;;;;;2.90;2.13;;;;;;;16.83;71.44;100358.63;703694;27;69241;-67
2021/08/26 00:40:59;;;;;;;2.88;1.95;;;;;;;16.81;71.62;100347.13;704345;27;45127;-67
2021/08/26 00:41:20;;;;;;;3.10;1.95;;;;;;;16.84;71.50;100346.66;701355;27;115135;-70
2021/08/26 00:41:42;;;;;;;3.97;1.98;;;;;;;16.85;71.43;100344.75;704378;27;21468;-67
2021/08/26 00:42:04;;;;;;;3.90;2.03;;;;;;;16.85;71.60;100347.47;703165;27;44388;-67
2021/08/26 00:42:25;;;;;;;4.22;1.95;;;;;;;16.85;71.36;100348.34;704167;27;44163;-67
2021/08/26 00:42:49;;;;;;;5.07;2.22;;;;;;;16.86;71.49;100346.47;703041;27;45246;-69
2021/08/26 00:43:13;;;;;;;2.35;1.90;;;;;;;16.86;71.65;100349.19;701665;27;92077;-67
2021/08/26 00:43:35;;;;;;;3.60;1.92;;;;;;;16.83;71.52;100342.25;703234;27;92259;-68
2021/08/26 00:43:56;;;;;;;4.45;1.85;;;;;;;16.86;71.39;100351.91;704374;27;22389;-68
2021/08/26 00:44:19;;;;;;;2.83;1.85;;;;;;;16.85;71.56;100353.78;704113;27;45056;-68
2021/08/26 00:44:40;;;;;;;2.15;1.98;;;;;;;16.79;71.45;100338.34;704025;27;45056;-69
2021/08/26 00:45:01;;;;;;;2.72;1.88;;;;;;;16.86;71.40;100346.47;700867;28;22392;-69
2021/08/26 00:45:22;;;;;;;3.17;2.00;;;;;;;16.83;71.17;100338.72;701095;28;22398;-69
2021/08/26 00:45:45;;;;;;;2.80;1.85;;;;;;;16.87;71.46;100342.69;701020;28;44024;-69
2021/08/26 00:46:06;;;;;;;3.00;2.00;;;;;;;16.88;71.38;100341.59;700358;28;45275;-69
2021/08/26 00:46:27;;;;;;;2.67;2.15;;;;;;;16.88;71.26;100344.31;701886;28;21544;-69
2021/08/26 00:46:49;;;;;;;3.75;2.30;;;;;;;16.89;71.60;100346.00;701429;28;46344;-68
2021/08/26 00:47:10;;;;;;;3.05;2.30;;;;;;;16.89;71.31;100343.28;704820;27;22380;-68
2021/08/26 00:47:33;;;;;;;3.15;2.15;;;;;;;16.89;71.40;100344.09;705874;27;22424;-68
2021/08/26 00:47:54;;;;;;;2.35;2.03;;;;;;;16.89;71.35;100343.28;697572;28;67531;-68
2021/08/26 00:48:15;;;;;;;3.30;2.15;;;;;;;16.89;71.48;100335.91;700312;28;22407;-68
2021/08/26 00:48:36;;;;;;;3.15;1.95;;;;;;;16.89;71.35;100341.38;700690;28;21541;-68
2021/08/26 00:48:58;;;;;;;2.40;2.00;;;;;;;16.90;71.32;100343.06;700346;28;22430;-68
2021/08/26 00:49:20;;;;;;;2.20;2.00;;;;;;;16.90;71.25;100336.78;699921;28;43768;-68
2021/08/26 00:49:41;;;;;;;4.83;2.10;;;;;;;16.91;71.34;100342.00;699032;28;44202;-68
2021/08/26 00:50:02;;;;;;;4.00;1.95;;;;;;;16.90;71.32;100345.78;696735;28;46165;-68
2021/08/26 00:50:28;;;;;;;3.20;1.92;;;;;;;16.91;71.36;100341.16;697897;28;23396;-68
2021/08/26 00:50:50;;;;;;;3.75;2.08;;;;;;;16.92;71.11;100337.38;693731;28;138050;-68
2021/08/26 00:51:11;;;;;;;4.70;2.25;;;;;;;16.93;71.13;100339.03;697072;28;45039;-67
2021/08/26 00:51:33;;;;;;;5.15;2.15;;;;;;;16.94;71.31;100337.97;697728;28;21527;-69
2021/08/26 00:51:54;;;;;;;3.47;2.15;;;;;;;16.95;71.23;100333.34;696739;28;46397;-68
2021/08/26 00:52:16;;;;;;;2.88;2.00;;;;;;;16.95;71.04;100331.47;697669;28;21520;-68
2021/08/26 00:52:38;;;;;;;4.05;2.10;;;;;;;16.96;71.00;100335.00;696146;28;69507;-67
2021/08/26 00:52:59;;;;;;;2.40;2.20;;;;;;;16.96;70.92;100337.72;697031;28;46329;-70
2021/08/26 00:53:21;;;;;;;3.30;2.10;;;;;;;16.96;70.98;100332.28;697577;28;22278;-68
2021/08/26 00:53:42;;;;;;;3.42;2.30;;;;;;;16.97;70.92;100329.31;697931;28;22415;-67
2021/08/26 00:54:04;;;;;;;6.10;2.30;;;;;;;16.97;70.79;100334.78;697196;28;44161;-67
2021/08/26 00:54:25;;;;;;;4.88;2.20;;;;;;;16.99;70.79;100334.56;697435;28;45253;-71
2021/08/26 00:54:47;;;;;;;5.28;2.15;;;;;;;16.96;70.70;100329.56;697788;28;22165;-69
2021/08/26 00:55:09;;;;;;;4.05;2.10;;;;;;;16.99;70.71;100334.56;697439;28;22371;-68
2021/08/26 00:55:30;;;;;;;5.43;2.40;;;;;;;16.98;70.68;100339.19;697219;28;45272;-68
2021/08/26 00:55:52;;;;;;;5.78;2.40;;;;;;;16.98;70.64;100331.00;698144;28;22394;-68
2021/08/26 00:56:13;;;;;;;4.43;2.20;;;;;;;16.99;70.34;100334.56;697170;28;46355;-68
2021/08/26 00:56:35;;;;;;;3.70;2.45;;;;;;;16.98;70.50;100333.72;698091;28;45250;-69
2021/08/26 00:56:57;;;;;;;3.10;2.45;;;;;;;16.98;70.37;100327.44;697739;28;22418;-69
2021/08/26 00:57:20;;;;;;;3.58;2.22;;;;;;;16.98;70.40;100332.91;696119;28;67241;-69
2021/08/26 00:57:41;;;;;;;4.03;2.13;;;;;;;16.98;70.33;100332.91;695661;28;69183;-69
2021/08/26 00:58:04;;;;;;;3.97;2.20;;;;;;;16.97;70.23;100333.97;697720;28;23429;-69
2021/08/26 00:58:27;;;;;;;4.78;2.53;;;;;;;16.98;70.54;100327.44;696917;28;44400;-69
2021/08/26 00:58:50;;;;;;;3.97;2.40;;;;;;;16.98;70.28;100331.00;696036;28;69343;-69
2021/08/26 00:59:11;;;;;;;3.65;2.30;;;;;;;16.97;70.41;100329.31;696124;28;69441;-69
2021/08/26 00:59:32;;;;;;;3.10;2.15;;;;;;;16.98;70.33;100324.72;697695;28;22447;-68
2021/08/26 00:59:54;;;;;;;5.97;2.50;;;;;;;16.99;70.57;100323.63;696453;28;46511;-69
2021/08/26 01:00:17;;;;;;;5.85;2.60;;;;;;;16.99;70.39;100324.50;693886;28;44485;-69
2021/08/26 01:00:39;;;;;;;5.38;2.30;;;;;;;16.98;70.15;100327.44;693480;28;69183;-69
2021/08/26 01:01:03;;;;;;;4.85;2.47;;;;;;;16.98;70.34;100324.72;695477;28;1815;-69
2021/08/26 01:01:27;;;;;;;4.97;2.35;;;;;;;16.97;70.24;100318.41;694269;28;47569;-69
2021/08/26 01:01:54;;;;;;;4.18;2.13;;;;;;;16.96;70.16;100319.50;693857;28;92151;-69
2021/08/26 01:02:23;;;;;;;4.63;2.30;;;;;;;16.96;70.34;100324.09;693518;28;137909;-69
2021/08/26 01:02:51;;;;;;;5.75;2.47;;;;;;;16.96;70.19;100321.38;693936;28;136308;-69
2021/08/26 01:03:14;;;;;;;4.05;2.20;;;;;;;16.95;70.51;100317.81;693021;28;161191;-69
2021/08/26 01:03:40;;;;;;;5.13;2.58;;;;;;;16.96;70.29;100314.03;696220;28;69457;-69
2021/08/26 01:04:07;;;;;;;4.18;2.25;;;;;;;16.97;70.38;100326.59;694009;28;136408;-69
2021/08/26 01:04:32;;;;;;;5.90;2.50;;;;;;;16.97;70.25;100325.78;694352;28;138021;-73
2021/08/26 01:05:01;;;;;;;6.30;2.40;;;;;;;16.92;70.27;100319.09;693776;28;136588;-67
2021/08/26 01:05:24;;;;;;;3.90;2.22;;;;;;;16.97;70.28;100325.78;693971;28;138021;-67
2021/08/26 01:05:48;;;;;;;4.80;2.45;;;;;;;16.97;70.30;100323.03;696609;28;69402;-68
2021/08/26 01:06:13;;;;;;;4.40;2.13;;;;;;;16.96;70.03;100316.75;695375;28;92287;-70
2021/08/26 01:06:38;;;;;;;3.08;2.20;;;;;;;16.92;70.18;100321.00;694430;28;115911;-68
2021/08/26 01:07:04;;;;;;;3.63;2.40;;;;;;;16.95;70.23;100323.28;693887;28;136400;-70
2021/08/26 01:07:30;;;;;;;4.43;2.38;;;;;;;16.91;70.14;100319.31;694476;28;115330;-68
2021/08/26 01:07:57;;;;;;;3.35;2.25;;;;;;;16.94;70.22;100321.59;695719;28;60396;-69
2021/08/26 01:08:22;;;;;;;2.97;2.38;;;;;;;16.90;70.16;100323.13;696031;28;130438;-68
2021/08/26 01:08:50;;;;;;;4.25;2.28;;;;;;;16.93;70.07;100322.69;698742;28;92268;-68
2021/08/26 01:09:14;;;;;;;3.85;2.70;;;;;;;16.93;70.34;100326.22;695693;28;161167;-68
2021/08/26 01:09:42;;;;;;;3.58;2.35;;;;;;;16.92;70.29;100324.56;698818;28;69279;-68
2021/08/26 01:10:05;;;;;;;5.20;2.20;;;;;;;16.93;70.25;100328.13;695278;28;137848;-68
2021/08/26 01:10:27;;;;;;;4.90;2.42;;;;;;;16.92;70.25;100323.72;695797;28;69104;-68
2021/08/26 01:10:53;;;;;;;3.92;2.42;;;;;;;16.93;70.32;100334.41;697206;28;45282;-68
2021/08/26 01:11:16;;;;;;;3.47;2.30;;;;;;;16.92;70.20;100319.09;693685;28;138857;-68
2021/08/26 01:11:38;;;;;;;4.70;2.40;;;;;;;16.91;70.13;100320.19;695955;28;67339;-68
2021/08/26 01:12:02;;;;;;;4.40;2.30;;;;;;;16.93;70.21;100322.69;696897;28;46294;-68
2021/08/26 01:12:24;;;;;;;4.60;2.40;;;;;;;16.95;70.14;100322.44;694929;28;92235;-68
2021/08/26 01:12:47;;;;;;;4.38;2.50;;;;;;;16.92;70.16;100321.00;696948;28;45126;-68
2021/08/26 01:13:11;;;;;;;4.78;2.50;;;;;;;16.95;70.11;100322.44;695796;28;67471;-68
2021/08/26 01:13:35;;;;;;;4.20;2.40;;;;;;;16.96;70.29;100332.28;697556;28;70186;-67
2021/08/26 01:13:56;;;;;;;5.90;2.33;;;;;;;16.96;70.20;100324.94;695809;28;90126;-68
2021/08/26 01:14:18;;;;;;;4.82;2.30;;;;;;;16.95;70.11;100325.19;696538;28;46240;-69
2021/08/26 01:14:41;;;;;;;3.75;2.35;;;;;;;16.96;70.22;100326.81;697717;28;20739;-69
2021/08/26 01:15:03;;;;;;;6.35;2.60;;;;;;;16.95;70.08;100323.28;695061;28;69450;-68
2021/08/26 01:15:26;;;;;;;4.38;2.30;;;;;;;16.96;70.18;100324.09;696726;28;44553;-69
2021/08/26 01:16:09;;;;;;;2.72;2.33;;;;;;;16.93;70.12;100334.41;695829;28;69512;-68
2021/08/26 01:16:35;;;;;;;4.18;2.53;;;;;;;16.93;70.16;100323.50;693069;28;89753;-67
2021/08/26 01:16:56;;;;;;;3.70;2.60;;;;;;;16.91;70.25;100322.91;695604;28;116153;-67
2021/08/26 01:17:18;;;;;;;3.63;2.75;;;;;;;16.93;70.04;100333.59;697656;28;22313;-67
2021/08/26 01:17:44;;;;;;;3.28;2.50;;;;;;;16.93;70.13;100328.97;696306;28;44412;-67
2021/08/26 01:18:05;;;;;;;4.18;2.58;;;;;;;16.94;70.07;100321.59;692610;28;161607;-68
2021/08/26 01:18:27;;;;;;;5.75;2.60;;;;;;;16.93;70.08;100318.03;697111;28;44354;-68
2021/08/26 01:18:49;;;;;;;4.95;2.50;;;;;;;16.95;70.08;100325.19;695452;28;22417;-69
2021/08/26 01:19:11;;;;;;;3.33;2.25;;;;;;;16.94;70.13;100324.31;696765;28;44402;-69
2021/08/26 01:19:32;;;;;;;5.32;2.60;;;;;;;16.93;69.98;100326.22;696920;28;46414;-68
2021/08/26 01:19:54;;;;;;;5.35;2.50;;;;;;;16.94;70.11;100327.06;697484;28;21593;-69
2021/08/26 01:20:16;;;;;;;6.22;2.88;;;;;;;16.95;70.01;100326.00;697141;28;44151;-71
2021/08/26 01:20:37;;;;;;;5.32;2.60;;;;;;;16.95;70.20;100319.72;697242;28;46338;-69
2021/08/26 01:20:58;;;;;;;4.90;2.60;;;;;;;16.95;69.88;100319.72;697975;28;22415;-68
2021/08/26 01:21:21;;;;;;;5.38;2.90;;;;;;;16.94;69.91;100316.13;698104;28;22414;-69
2021/08/26 01:21:43;;;;;;;4.50;2.33;;;;;;;16.92;69.95;100318.28;696150;28;67507;-69
2021/08/26 01:22:04;;;;;;;5.28;2.58;;;;;;;16.93;70.27;100314.50;697319;28;46117;-68
2021/08/26 01:22:26;;;;;;;6.07;2.40;;;;;;;16.93;70.02;100318.03;697756;28;22377;-71
2021/08/26 01:22:48;;;;;;;4.60;2.30;;;;;;;16.93;70.00;100320.78;695818;28;69566;-68
2021/08/26 01:23:09;;;;;;;3.88;2.17;;;;;;;16.93;69.78;100322.69;697417;28;21517;-68
2021/08/26 01:23:33;;;;;;;6.25;2.40;;;;;;;16.89;69.93;100318.72;697846;28;23495;-68
2021/08/26 01:23:57;;;;;;;3.95;2.50;;;;;;;16.93;70.12;100322.69;695334;28;91958;-71
2021/08/26 01:24:18;;;;;;;4.95;2.67;;;;;;;16.90;69.96;100315.78;695059;28;92606;-70
2021/08/26 01:24:40;;;;;;;5.80;2.90;;;;;;;16.93;70.08;100314.50;697529;28;22590;-69
2021/08/26 01:25:05;;;;;;;8.20;2.60;;;;;;;16.92;70.09;100316.38;696684;28;45272;-72
2021/08/26 01:25:28;;;;;;;3.67;2.20;;;;;;;16.93;69.97;100312.59;694120;28;115164;-67
2021/08/26 01:25:50;;;;;;;5.07;2.50;;;;;;;16.94;70.06;100327.06;696136;28;69434;-67
2021/08/26 01:26:14;;;;;;;4.28;2.67;;;;;;;16.94;69.86;100321.59;696744;28;46234;-70
2021/08/26 01:26:38;;;;;;;3.85;2.42;;;;;;;16.93;69.98;100320.78;695375;28;93177;-67
2021/08/26 01:27:00;;;;;;;5.90;2.50;;;;;;;16.93;70.08;100322.69;696765;28;52591;-68
2021/08/26 01:27:22;;;;;;;4.30;2.60;;;;;;;16.92;69.93;100321.00;696956;28;46152;-69
2021/08/26 01:27:47;;;;;;;4.57;2.47;;;;;;;16.91;70.07;100325.63;696291;28;44153;-68
2021/08/26 01:28:08;;;;;;;4.68;2.22;;;;;;;16.90;70.12;100325.88;694466;28;113821;-69
2021/08/26 01:28:31;;;;;;;3.42;2.25;;;;;;;16.87;70.10;100320.88;698043;28;23415;-69
2021/08/26 01:28:54;;;;;;;4.88;2.50;;;;;;;16.89;70.02;100319.56;696474;28;69424;-69
2021/08/26 01:29:16;;;;;;;4.10;2.30;;;;;;;16.89;70.11;100327.72;696870;28;46171;-69
2021/08/26 01:29:38;;;;;;;4.78;2.50;;;;;;;16.87;70.06;100318.13;696227;28;69180;-69
2021/08/26 01:29:59;;;;;;;5.38;2.50;;;;;;;16.88;70.24;100322.50;697824;28;22395;-69
2021/08/26 01:30:23;;;;;;;4.28;2.50;;;;;;;16.86;70.27;100325.47;696569;28;46404;-68
2021/08/26 01:30:45;;;;;;;4.20;2.55;;;;;;;16.85;70.39;100317.47;695258;28;92840;-68
2021/08/26 01:31:07;;;;;;;5.38;2.70;;;;;;;16.84;70.26;100321.28;697091;28;44317;-68
2021/08/26 01:31:31;;;;;;;6.53;2.70;;;;;;;16.84;70.34;100324.84;698269;28;22374;-69
2021/08/26 01:31:52;;;;;;;4.93;2.58;;;;;;;16.86;70.40;100322.75;695257;28;93114;-68
2021/08/26 01:32:16;;;;;;;3.60;2.47;;;;;;;16.87;70.36;100329.03;697481;28;22358;-68
2021/08/26 01:32:37;;;;;;;3.92;2.70;;;;;;;16.86;70.50;100327.38;694881;28;114984;-68
2021/08/26 01:33:00;;;;;;;3.75;2.60;;;;;;;16.86;70.37;100321.91;698035;28;22447;-69
2021/08/26 01:33:22;;;;;;;3.60;2.45;;;;;;;16.85;70.44;100323.78;696769;28;46386;-69
2021/08/26 01:33:43;;;;;;;3.65;2.30;;;;;;;16.83;70.31;100328.63;697019;28;44109;-69
2021/08/26 01:34:05;;;;;;;4.30;2.50;;;;;;;16.81;70.44;100316.28;697159;28;45298;-68
2021/08/26 01:34:29;;;;;;;3.90;2.42;;;;;;;16.82;70.35;100326.97;697540;28;43675;-68
2021/08/26 01:34:52;;;;;;;5.00;2.80;;;;;;;16.80;70.49;100318.16;695272;28;92257;-68
2021/08/26 01:35:13;;;;;;;6.18;3.03;;;;;;;16.82;70.33;100318.78;696513;28;45276;-68
2021/08/26 01:35:34;;;;;;;4.82;2.42;;;;;;;16.81;70.53;100313.56;697549;28;21516;-68
2021/08/26 01:35:56;;;;;;;5.10;2.42;;;;;;;16.79;70.47;100321.97;697078;28;45272;-69
2021/08/26 01:36:18;;;;;;;5.75;2.60;;;;;;;16.82;70.60;100324.25;697474;28;22482;-69
2021/08/26 01:36:40;;;;;;;6.45;2.30;;;;;;;16.82;70.51;100321.53;695813;28;69577;-69
2021/08/26 01:37:01;;;;;;;4.53;2.40;;;;;;;16.83;70.57;100320.44;698044;28;21385;-69
2021/08/26 01:37:23;;;;;;;4.40;2.30;;;;;;;16.82;70.41;100317.94;698113;28;22414;-69
2021/08/26 01:37:46;;;;;;;3.20;2.20;;;;;;;16.82;70.56;100321.53;697032;28;46291;-69
2021/08/26 01:38:07;;;;;;;2.95;2.47;;;;;;;16.83;70.38;100319.63;696042;28;69285;-69
2021/08/26 01:38:28;;;;;;;3.80;2.50;;;;;;;16.83;70.48;100316.88;697865;28;22391;-71
2021/08/26 01:38:50;;;;;;;4.68;2.42;;;;;;;16.81;70.44;100322.56;698099;28;22219;-68
2021/08/26 01:39:15;;;;;;;3.67;2.30;;;;;;;16.80;70.44;100314.63;696936;28;46432;-67
2021/08/26 01:39:44;;;;;;;6.95;2.70;;;;;;;16.80;70.63;100312.72;694529;28;115164;-71
2021/08/26 01:40:07;;;;;;;4.40;2.33;;;;;;;16.81;70.60;100313.56;694882;28;137768;-69
2021/08/26 01:40:32;;;;;;;4.00;2.30;;;;;;;16.80;70.48;100317.34;696120;28;67432;-69
2021/08/26 01:40:56;;;;;;;3.72;2.50;;;;;;;16.80;70.50;100320.06;696276;28;61858;-68
2021/08/26 01:41:18;;;;;;;4.95;2.70;;;;;;;16.76;70.64;100311.53;696108;28;67492;-67
2021/08/26 01:41:40;;;;;;;6.38;2.40;;;;;;;16.79;70.51;100319.25;696787;28;43560;-68
2021/08/26 01:42:02;;;;;;;4.13;2.40;;;;;;;16.78;70.52;100308.56;696314;28;46457;-68
2021/08/26 01:42:24;;;;;;;4.35;2.60;;;;;;;16.76;70.61;100319.69;695920;28;45073;-68
2021/08/26 01:42:46;;;;;;;5.80;2.70;;;;;;;16.76;70.68;100316.97;694493;28;69450;-71
2021/08/26 01:43:08;;;;;;;7.57;2.40;;;;;;;16.75;70.72;100315.28;696166;28;23852;-69
2021/08/26 01:43:32;;;;;;;5.93;2.50;;;;;;;16.74;70.73;100313.66;695566;28;46003;-68
2021/08/26 01:43:53;;;;;;;3.08;2.40;;;;;;;16.74;70.75;100317.22;693777;28;92317;-68
2021/08/26 01:44:17;;;;;;;4.10;2.40;;;;;;;16.69;70.72;100297.13;697300;28;22275;-69
2021/08/26 01:44:38;;;;;;;5.22;2.50;;;;;;;16.74;70.85;100316.38;694923;28;91938;-69
2021/08/26 01:44:59;;;;;;;4.10;2.55;;;;;;;16.72;70.98;100311.16;698127;28;22429;-67
2021/08/26 01:45:20;;;;;;;4.63;2.78;;;;;;;16.73;70.88;100306.53;697674;28;22423;-68
2021/08/26 01:45:43;;;;;;;4.80;2.55;;;;;;;16.71;70.94;100320.38;698069;28;22537;-68
2021/08/26 01:46:05;;;;;;;3.55;2.40;;;;;;;16.72;70.84;100315.75;696097;28;69953;-71
2021/08/26 01:46:26;;;;;;;3.88;2.58;;;;;;;16.71;70.93;100314.09;697959;28;22384;-69
2021/08/26 01:46:48;;;;;;;5.03;2.60;;;;;;;16.72;70.90;100307.56;697971;28;23458;-69
2021/08/26 01:47:15;;;;;;;4.63;2.42;;;;;;;16.71;71.14;100314.09;696749;28;45245;-68
2021/08/26 01:47:36;;;;;;;3.13;2.33;;;;;;;16.71;70.94;100312.22;696309;28;60266;-71
2021/08/26 01:47:57;;;;;;;4.55;2.45;;;;;;;16.72;70.83;100311.16;704231;27;22413;-70
2021/08/26 01:48:20;;;;;;;5.18;2.58;;;;;;;16.69;70.84;100313.47;704406;27;21525;-71
2021/08/26 01:48:44;;;;;;;3.65;2.28;;;;;;;16.69;70.89;100319.78;700970;28;69997;-68
2021/08/26 01:49:05;;;;;;;5.30;2.60;;;;;;;16.69;70.83;100311.59;701855;28;67481;-69
2021/08/26 01:49:27;;;;;;;5.72;2.35;;;;;;;16.67;70.84;100313.72;703285;28;22418;-69
2021/08/26 01:49:50;;;;;;;8.20;2.50;;;;;;;16.68;70.97;100311.84;701905;28;46311;-67